Time;durP1;ratioP1;P1;durP2;ratioP2;P2;SDS_P1;SDS_P2;PMS_P1;PMS_P2;Temp;Humidity;BMP_temperature;BMP_pressure;BME280_temperature;BME280_humidity;BME280_pressure;Samples;Min_cycle;Max_cycle;Signal;HPM_P1;HPM_P2
2023/03/05 00:00:14;;;;;;;1.52;1.30;;;7.10;99.90;;;;;;4996785;28;20030;-81
2023/03/05 00:02:40;;;;;;;2.00;1.45;;;7.10;99.90;;;;;;4995083;28;20029;-80
2023/03/05 00:05:07;;;;;;;2.25;1.70;;;7.10;99.90;;;;;;4982656;28;20438;-81
2023/03/05 00:07:33;;;;;;;1.80;1.42;;;7.10;99.90;;;;;;4993502;28;20429;-80
2023/03/05 00:09:59;;;;;;;2.10;1.55;;;7.10;99.90;;;;;;4996718;28;20368;-80
2023/03/05 00:12:25;;;;;;;2.08;1.45;;;7.10;99.90;;;;;;4991295;28;20503;-81
2023/03/05 00:14:51;;;;;;;1.67;1.40;;;7.10;99.90;;;;;;4975878;28;20031;-80
2023/03/05 00:17:17;;;;;;;2.08;1.55;;;7.10;99.90;;;;;;4989837;28;20041;-81
2023/03/05 00:19:43;;;;;;;3.55;1.58;;;7.10;99.90;;;;;;4975782;28;20081;-81
2023/03/05 00:22:37;;;;;;;1.90;1.50;;;7.00;99.90;;;;;;4993211;28;20113;-82
2023/03/05 00:25:18;;;;;;;2.50;1.42;;;7.00;99.90;;;;;;4978282;28;20545;-82
2023/03/05 00:31:55;;;;;;;1.98;1.60;;;6.90;99.90;;;;;;4983448;28;20035;-82
2023/03/05 00:34:21;;;;;;;2.13;1.48;;;7.00;99.90;;;;;;4970306;28;20428;-81
2023/03/05 00:36:52;;;;;;;2.03;1.52;;;7.00;99.90;;;;;;4977914;28;20053;-81
2023/03/05 00:39:19;;;;;;;2.00;1.45;;;7.00;99.90;;;;;;4984029;28;20019;-81
2023/03/05 00:41:45;;;;;;;2.28;1.60;;;7.00;99.90;;;;;;4977036;28;20469;-81
2023/03/05 00:44:11;;;;;;;1.92;1.63;;;7.00;99.90;;;;;;4977853;28;20027;-81
2023/03/05 00:46:37;;;;;;;2.25;1.63;;;7.00;99.90;;;;;;4975530;28;20075;-81
2023/03/05 00:49:04;;;;;;;2.75;1.73;;;7.00;99.90;;;;;;4979708;28;20507;-80
2023/03/05 00:51:29;;;;;;;2.08;1.60;;;7.00;99.90;;;;;;4976755;28;20125;-80
2023/03/05 00:53:55;;;;;;;1.98;1.45;;;7.00;99.90;;;;;;4976471;28;20096;-80
2023/03/05 00:56:21;;;;;;;1.92;1.60;;;7.00;99.90;;;;;;4976434;28;20502;-81
2023/03/05 00:58:47;;;;;;;3.47;1.92;;;6.90;99.90;;;;;;4988232;28;20018;-81
2023/03/05 01:01:13;;;;;;;3.28;1.80;;;6.90;99.90;;;;;;4994232;28;20034;-80
2023/03/05 01:03:39;;;;;;;1.98;1.60;;;6.90;99.90;;;;;;4995556;28;20441;-80
2023/03/05 01:06:09;;;;;;;3.50;1.65;;;6.90;99.90;;;;;;4988879;28;20106;-81
2023/03/05 01:14:34;;;;;;;2.20;1.50;;;7.00;99.90;;;;;;5570608;22;20053;-80
2023/03/05 01:17:00;;;;;;;2.00;1.40;;;7.00;99.90;;;;;;5057391;28;20041;-79
2023/03/05 01:19:25;;;;;;;2.40;1.60;;;6.90;99.90;;;;;;5057776;28;20385;-79
2023/03/05 01:21:51;;;;;;;1.85;1.45;;;6.90;99.90;;;;;;5039955;28;20036;-79
2023/03/05 01:24:17;;;;;;;3.10;1.77;;;6.90;99.90;;;;;;5057555;28;20036;-81
2023/03/05 01:41:14;;;;;;;2.22;1.70;;;6.80;99.90;;;;;;5037400;28;20018;-83
2023/03/05 02:08:54;;;;;;;2.15;1.40;;;6.80;99.90;;;;;;4736724;30;20575;-82
2023/03/05 02:15:31;;;;;;;;;;;;;;;;;;;;;
2023/03/05 02:18:05;;;;;;;1.75;1.25;;;6.90;99.90;;;;;;4856283;29;20045;-80
2023/03/05 02:20:51;;;;;;;2.15;1.50;;;7.00;99.90;;;;;;4924317;29;20130;-80
2023/03/05 02:23:35;;;;;;;2.53;1.42;;;7.00;99.90;;;;;;4930490;29;20027;-80
2023/03/05 02:26:09;;;;;;;;;;;7.00;99.90;;;;;;4988726;28;20034;-80
2023/03/05 02:28:43;;;;;;;1.70;1.20;;;7.00;99.90;;;;;;5039489;28;19905;-80
2023/03/05 02:31:18;;;;;;;2.25;1.25;;;7.00;99.90;;;;;;5039812;28;20025;-80
2023/03/05 02:33:50;;;;;;;2.17;1.60;;;7.00;99.90;;;;;;5027221;28;20115;-80
2023/03/05 02:36:16;;;;;;;2.60;1.73;;;7.00;99.90;;;;;;5039505;28;20017;-77
2023/03/05 02:38:43;;;;;;;2.22;1.70;;;7.00;99.90;;;;;;5039612;28;20517;-77
2023/03/05 02:41:09;;;;;;;2.53;1.58;;;7.00;99.90;;;;;;5040879;28;20477;-77
2023/03/05 02:43:35;;;;;;;2.30;1.52;;;7.00;99.90;;;;;;5041259;28;20029;-78
2023/03/05 02:46:00;;;;;;;2.72;1.90;;;7.00;99.90;;;;;;5040238;28;20612;-78
2023/03/05 02:48:26;;;;;;;1.90;1.38;;;7.00;99.90;;;;;;5032687;28;20024;-78
2023/03/05 02:50:52;;;;;;;3.60;1.90;;;6.90;99.90;;;;;;5019728;28;20109;-77
2023/03/05 02:56:28;;;;;;;2.10;1.65;;;6.90;99.90;;;;;;4979143;28;20583;-81
2023/03/05 02:59:05;;;;;;;2.50;1.77;;;7.00;99.90;;;;;;5038732;28;20043;-85
2023/03/05 03:05:23;;;;;;;2.30;1.55;;;6.90;99.90;;;;;;4992814;28;20030;-84
2023/03/05 03:07:49;;;;;;;2.60;1.48;;;6.90;99.90;;;;;;5019722;28;20104;-78
2023/03/05 03:10:16;;;;;;;2.00;1.55;;;6.90;99.90;;;;;;5022051;28;20030;-79
2023/03/05 03:12:43;;;;;;;2.47;1.65;;;7.00;99.90;;;;;;5038060;28;20022;-81
2023/03/05 03:24:20;;;;;;;;;;;;;;;;;;;;;
2023/03/05 03:26:56;;;;;;;3.08;1.88;;;7.00;99.90;;;;;;5079979;28;20123;-81
2023/03/05 03:29:33;;;;;;;2.33;1.77;;;6.90;99.90;;;;;;5068999;28;20055;-80
2023/03/05 03:31:59;;;;;;;2.75;1.80;;;6.90;99.90;;;;;;5068001;28;20479;-79
2023/03/05 03:34:25;;;;;;;2.80;2.00;;;6.90;99.90;;;;;;5086604;28;20036;-78
2023/03/05 03:36:54;;;;;;;2.60;1.98;;;6.90;99.90;;;;;;5079554;28;20040;-78
2023/03/05 03:39:20;;;;;;;2.75;1.88;;;6.90;99.90;;;;;;5079472;28;20055;-77
2023/03/05 03:41:51;;;;;;;2.45;1.88;;;6.90;99.90;;;;;;5081455;28;20021;-78
2023/03/05 03:44:46;;;;;;;2.47;1.75;;;6.90;99.90;;;;;;5079610;28;20100;-82
2023/03/05 03:47:12;;;;;;;2.28;1.70;;;6.80;99.90;;;;;;5063018;28;20033;-83
2023/03/05 03:52:34;;;;;;;3.78;1.80;;;6.90;99.90;;;;;;5095975;28;20093;-82
2023/03/05 03:55:03;;;;;;;2.88;1.90;;;6.90;99.90;;;;;;5081768;28;20040;-83
2023/03/05 03:57:35;;;;;;;2.85;1.98;;;6.90;99.90;;;;;;5081446;28;20467;-82
2023/03/05 04:00:05;;;;;;;2.97;2.10;;;6.90;99.90;;;;;;5081649;28;20020;-82
2023/03/05 04:02:33;;;;;;;3.00;1.95;;;6.90;99.90;;;;;;5081331;28;20059;-82
2023/03/05 04:04:59;;;;;;;3.20;1.88;;;6.90;99.90;;;;;;5099473;28;20027;-83
2023/03/05 04:07:25;;;;;;;3.17;1.98;;;6.80;99.90;;;;;;5094610;28;20028;-82
2023/03/05 04:13:49;;;;;;;2.55;1.85;;;6.90;99.90;;;;;;5008003;28;20490;-81
2023/03/05 04:16:15;;;;;;;2.55;1.92;;;6.90;99.90;;;;;;5050214;28;20488;-78
2023/03/05 04:18:41;;;;;;;4.07;2.15;;;6.90;99.90;;;;;;5098986;28;20472;-78
2023/03/05 04:27:21;;;;;;;2.60;1.75;;;6.90;99.90;;;;;;5047331;28;20087;-80
2023/03/05 04:29:47;;;;;;;2.53;1.63;;;6.90;99.90;;;;;;5058570;28;20033;-78
2023/03/05 04:32:13;;;;;;;2.97;2.05;;;6.80;99.90;;;;;;5057553;28;20070;-78
2023/03/05 04:34:39;;;;;;;3.40;2.28;;;6.90;99.90;;;;;;5042199;28;20071;-79
2023/03/05 04:37:04;;;;;;;3.28;2.17;;;6.90;99.90;;;;;;5037670;28;20430;-80
2023/03/05 04:39:30;;;;;;;3.55;2.22;;;6.80;99.90;;;;;;5038352;28;20025;-80
2023/03/05 04:41:56;;;;;;;5.47;2.38;;;6.80;99.90;;;;;;5037531;28;20025;-76
2023/03/05 04:44:24;;;;;;;3.00;2.30;;;6.80;99.90;;;;;;5038320;28;20112;-78
2023/03/05 04:46:49;;;;;;;5.05;2.47;;;6.90;99.90;;;;;;5038390;28;20048;-78
2023/03/05 04:49:15;;;;;;;3.35;2.50;;;6.90;99.90;;;;;;5041609;28;20025;-78
2023/03/05 04:51:41;;;;;;;4.75;2.55;;;6.90;99.90;;;;;;5037478;28;20021;-78
2023/03/05 04:54:07;;;;;;;3.70;2.50;;;6.90;99.90;;;;;;5038213;28;20052;-78
2023/03/05 04:56:33;;;;;;;3.38;2.50;;;6.90;99.90;;;;;;5038097;28;20027;-78
2023/03/05 04:58:58;;;;;;;3.45;2.60;;;6.90;99.90;;;;;;5038227;28;20030;-78
2023/03/05 05:01:24;;;;;;;3.47;2.63;;;6.90;99.90;;;;;;5038129;28;20025;-78
2023/03/05 05:03:50;;;;;;;4.97;2.80;;;6.90;99.90;;;;;;5036734;28;20030;-78
2023/03/05 05:06:15;;;;;;;3.63;2.42;;;6.90;99.90;;;;;;5038214;28;20512;-78
2023/03/05 05:08:42;;;;;;;3.58;2.45;;;6.80;99.90;;;;;;5038065;28;20036;-78
2023/03/05 05:11:12;;;;;;;3.88;2.58;;;6.80;99.90;;;;;;5036776;28;20121;-78
2023/03/05 05:13:38;;;;;;;4.75;2.80;;;6.80;99.90;;;;;;5037887;28;20026;-77
2023/03/05 05:16:08;;;;;;;3.53;2.42;;;6.80;99.90;;;;;;5037746;28;20032;-78
2023/03/05 05:18:34;;;;;;;5.20;2.80;;;6.80;99.90;;;;;;5037796;28;20060;-77
2023/03/05 05:21:17;;;;;;;3.85;2.50;;;6.80;99.90;;;;;;5037927;28;20386;-81
2023/03/05 05:23:43;;;;;;;3.63;2.47;;;6.80;99.90;;;;;;5075990;28;20049;-81
2023/03/05 05:26:13;;;;;;;3.60;2.50;;;6.80;99.90;;;;;;5059919;28;20381;-81
2023/03/05 05:28:42;;;;;;;4.43;2.70;;;6.80;99.90;;;;;;5059745;28;20052;-81
2023/03/05 05:31:35;;;;;;;4.20;3.05;;;6.80;99.90;;;;;;5090938;28;20024;-82
2023/03/05 05:34:00;;;;;;;3.78;2.50;;;6.80;99.90;;;;;;5071309;28;20060;-81
2023/03/05 05:36:26;;;;;;;2.70;2.25;;;6.80;99.90;;;;;;5079531;28;20365;-79
2023/03/05 05:38:52;;;;;;;3.75;2.58;;;6.70;99.90;;;;;;5079617;28;20110;-81
2023/03/05 05:41:18;;;;;;;3.45;2.33;;;6.80;99.90;;;;;;5079669;28;20028;-82
2023/03/05 05:44:55;;;;;;;;;;;;;;;;;;;;;
2023/03/05 05:47:20;;;;;;;3.85;2.33;;;6.80;99.90;;;;;;5073610;28;20468;-78
2023/03/05 05:49:46;;;;;;;2.88;2.30;;;6.80;99.90;;;;;;5078063;28;20048;-78
2023/03/05 05:52:12;;;;;;;3.85;2.58;;;6.80;99.90;;;;;;5077530;28;20032;-78
2023/03/05 05:54:38;;;;;;;6.43;2.90;;;6.80;99.90;;;;;;5059238;28;20485;-79
2023/03/05 05:57:04;;;;;;;3.65;2.60;;;6.70;99.90;;;;;;5059556;28;20055;-81
2023/03/05 05:59:30;;;;;;;4.35;2.60;;;6.70;99.90;;;;;;5077293;28;20017;-81
2023/03/05 06:01:55;;;;;;;3.42;2.47;;;6.70;99.90;;;;;;5077187;28;20055;-78
2023/03/05 06:04:21;;;;;;;4.10;2.58;;;6.70;99.90;;;;;;5059504;28;20473;-80
2023/03/05 06:06:47;;;;;;;3.75;2.67;;;6.70;99.90;;;;;;5090348;28;20034;-79
2023/03/05 06:09:14;;;;;;;2.80;2.40;;;6.70;99.90;;;;;;5075467;28;20707;-79
2023/03/05 06:11:40;;;;;;;4.18;3.00;;;6.70;99.90;;;;;;5077077;28;20036;-81
2023/03/05 06:14:07;;;;;;;3.30;2.42;;;6.60;99.90;;;;;;5077155;28;20031;-80
2023/03/05 06:16:33;;;;;;;4.25;2.58;;;6.70;99.90;;;;;;5076942;28;20028;-81
2023/03/05 06:19:03;;;;;;;3.08;2.63;;;6.70;99.90;;;;;;5077077;28;20025;-77
2023/03/05 06:21:29;;;;;;;4.30;2.45;;;6.70;99.90;;;;;;5077000;28;20046;-79
2023/03/05 06:23:57;;;;;;;3.22;2.28;;;6.70;99.90;;;;;;5077190;28;20107;-78
2023/03/05 06:26:23;;;;;;;3.63;2.30;;;6.70;99.90;;;;;;5076895;28;20043;-78
2023/03/05 06:28:50;;;;;;;3.78;2.40;;;6.70;99.90;;;;;;5077214;28;20020;-77
2023/03/05 06:31:20;;;;;;;2.80;1.95;;;6.70;99.90;;;;;;5076978;28;20021;-81
2023/03/05 06:33:47;;;;;;;3.33;2.45;;;6.70;99.90;;;;;;5071278;28;20017;-81
2023/03/05 06:36:15;;;;;;;3.17;2.30;;;6.70;99.90;;;;;;5076814;28;20396;-83
2023/03/05 06:38:41;;;;;;;3.58;2.30;;;6.80;99.90;;;;;;5076918;28;20103;-81
2023/03/05 06:41:10;;;;;;;2.72;2.10;;;6.80;99.90;;;;;;5092746;28;20059;-81
2023/03/05 06:43:38;;;;;;;2.70;2.00;;;6.80;99.90;;;;;;5077059;28;20103;-82
2023/03/05 06:46:06;;;;;;;4.38;2.38;;;6.80;99.90;;;;;;5076483;28;20021;-82
2023/03/05 06:48:32;;;;;;;3.28;2.08;;;6.70;99.90;;;;;;5076856;28;20430;-80
2023/03/05 06:51:00;;;;;;;3.85;1.98;;;6.80;99.90;;;;;;5058903;28;20085;-84
2023/03/05 06:54:12;;;;;;;;;;;;;;;;;;;;;
2023/03/05 06:56:41;;;;;;;2.60;1.80;;;6.80;99.90;;;;;;5065522;28;20568;-79
2023/03/05 06:59:07;;;;;;;2.70;1.98;;;6.70;99.90;;;;;;5058860;28;20052;-79
2023/03/05 07:01:33;;;;;;;2.88;2.03;;;6.70;99.90;;;;;;5089141;28;20438;-80
2023/03/05 07:03:59;;;;;;;2.75;1.90;;;6.70;99.90;;;;;;5082250;28;20135;-79
2023/03/05 07:06:28;;;;;;;4.03;2.10;;;6.80;99.90;;;;;;5099351;28;20024;-78
2023/03/05 07:08:55;;;;;;;3.83;2.33;;;6.80;99.90;;;;;;5082409;28;20031;-78
2023/03/05 07:11:21;;;;;;;4.03;2.15;;;6.70;99.90;;;;;;5100524;28;20020;-78
2023/03/05 07:13:47;;;;;;;3.63;2.22;;;6.70;99.90;;;;;;5100356;28;20028;-78
2023/03/05 07:16:24;;;;;;;2.70;1.88;;;6.70;99.90;;;;;;5082052;28;20457;-81
2023/03/05 07:19:06;;;;;;;2.55;1.90;;;6.70;99.90;;;;;;5100592;28;20028;-82
2023/03/05 07:21:47;;;;;;;2.57;1.70;;;6.80;99.90;;;;;;5068891;28;20108;-84
2023/03/05 07:24:28;;;;;;;2.55;1.55;;;6.70;99.90;;;;;;5059066;28;20028;-83
2023/03/05 07:27:22;;;;;;;3.47;2.00;;;6.70;99.90;;;;;;5081764;28;20484;-84
2023/03/05 07:30:06;;;;;;;3.35;2.20;;;6.70;99.90;;;;;;5078372;28;20025;-82
2023/03/05 07:33:00;;;;;;;2.50;1.88;;;6.80;99.90;;;;;;5061470;28;20492;-83
2023/03/05 07:35:25;;;;;;;3.17;2.00;;;6.80;99.90;;;;;;5050281;28;20021;-79
2023/03/05 07:37:54;;;;;;;3.08;2.00;;;6.80;99.90;;;;;;5094647;28;20032;-81
2023/03/05 07:40:22;;;;;;;3.50;2.10;;;6.80;99.90;;;;;;5098901;28;20396;-80
2023/03/05 07:42:56;;;;;;;3.70;2.03;;;6.90;99.90;;;;;;5097409;28;20031;-82
2023/03/05 07:45:21;;;;;;;3.90;2.17;;;6.80;99.90;;;;;;5061661;28;20427;-80
2023/03/05 07:47:47;;;;;;;2.63;1.60;;;6.90;99.90;;;;;;5061653;28;20020;-78
2023/03/05 07:50:12;;;;;;;4.00;1.90;;;6.80;99.90;;;;;;5079569;28;20047;-81
2023/03/05 07:52:38;;;;;;;3.55;1.95;;;6.80;99.80;;;;;;5061325;28;20036;-80
2023/03/05 07:55:04;;;;;;;2.50;1.77;;;6.80;99.90;;;;;;5079451;28;20025;-82
2023/03/05 07:57:30;;;;;;;2.72;2.00;;;6.80;99.90;;;;;;5079181;28;20126;-80
2023/03/05 07:59:55;;;;;;;2.42;1.90;;;6.90;99.90;;;;;;5079691;28;20431;-80
2023/03/05 08:02:21;;;;;;;2.80;2.00;;;7.00;99.90;;;;;;5079011;28;20048;-80
2023/03/05 08:04:47;;;;;;;2.17;1.88;;;7.00;99.90;;;;;;5061189;28;20021;-80
2023/03/05 08:07:16;;;;;;;2.58;1.90;;;7.00;99.80;;;;;;5079091;28;20036;-81
2023/03/05 08:09:42;;;;;;;2.83;2.05;;;7.00;99.90;;;;;;5079143;28;20104;-78
2023/03/05 08:12:09;;;;;;;2.97;2.05;;;7.00;99.90;;;;;;5061110;28;20052;-77
2023/03/05 08:14:35;;;;;;;2.53;2.15;;;7.10;99.90;;;;;;5079221;28;20057;-80
2023/03/05 08:17:02;;;;;;;2.50;2.00;;;7.10;99.80;;;;;;5078509;28;20496;-83
2023/03/05 08:19:27;;;;;;;2.53;1.80;;;7.10;99.90;;;;;;5079018;28;20043;-80
2023/03/05 08:21:53;;;;;;;2.85;1.65;;;7.10;99.90;;;;;;5078598;28;20045;-84
2023/03/05 08:24:19;;;;;;;2.80;1.85;;;7.10;99.70;;;;;;5061047;28;20025;-83
2023/03/05 08:26:44;;;;;;;3.00;2.15;;;7.20;99.80;;;;;;5078604;28;20021;-82
2023/03/05 08:29:10;;;;;;;2.50;1.70;;;7.20;99.90;;;;;;5078834;28;20523;-82
2023/03/05 08:31:36;;;;;;;2.38;1.73;;;7.20;99.40;;;;;;5081685;28;20020;-80
2023/03/05 08:34:03;;;;;;;3.35;2.17;;;7.20;99.90;;;;;;5070820;28;20025;-79
2023/03/05 08:36:29;;;;;;;2.30;1.98;;;7.20;99.90;;;;;;5082165;28;20052;-84
2023/03/05 08:38:55;;;;;;;2.38;1.92;;;7.30;99.70;;;;;;5098888;28;20040;-83
2023/03/05 08:41:21;;;;;;;2.95;1.88;;;7.30;99.60;;;;;;5080734;28;20028;-83
2023/03/05 08:43:47;;;;;;;2.60;1.80;;;7.30;99.20;;;;;;5071767;28;20032;-83
2023/03/05 08:46:15;;;;;;;2.88;2.00;;;7.30;98.70;;;;;;5058551;28;20024;-82
2023/03/05 08:48:43;;;;;;;2.92;2.10;;;7.30;98.70;;;;;;5066686;28;20147;-82
2023/03/05 08:51:14;;;;;;;2.50;1.73;;;7.30;98.90;;;;;;5066551;28;20385;-84
2023/03/05 08:53:43;;;;;;;3.20;2.08;;;7.40;99.20;;;;;;5078411;28;20047;-81
2023/03/05 08:56:09;;;;;;;2.47;2.05;;;7.40;99.40;;;;;;5077879;28;20025;-72
2023/03/05 08:58:35;;;;;;;3.60;1.90;;;7.50;99.10;;;;;;5078217;28;20031;-72
2023/03/05 09:01:00;;;;;;;2.72;1.83;;;7.50;98.80;;;;;;5077752;28;20039;-75
2023/03/05 09:03:26;;;;;;;2.65;2.20;;;7.50;98.40;;;;;;5060146;28;20489;-80
2023/03/05 09:05:52;;;;;;;3.22;1.80;;;7.50;98.60;;;;;;5059990;28;20591;-73
2023/03/05 09:08:18;;;;;;;3.88;2.17;;;7.60;98.30;;;;;;5078160;28;20032;-73
2023/03/05 09:10:45;;;;;;;3.00;2.08;;;7.60;97.70;;;;;;5077665;28;20032;-74
2023/03/05 09:13:11;;;;;;;2.80;2.10;;;7.60;98.20;;;;;;5071857;28;20032;-70
2023/03/05 09:15:37;;;;;;;2.53;1.88;;;7.70;98.00;;;;;;5068078;28;20491;-69
2023/03/05 09:18:04;;;;;;;2.50;1.95;;;7.70;98.10;;;;;;5053648;28;20066;-73
2023/03/05 09:20:29;;;;;;;2.58;1.80;;;7.70;97.60;;;;;;5067703;28;20393;-71
2023/03/05 09:22:55;;;;;;;5.57;2.28;;;7.70;97.80;;;;;;5068430;28;20052;-71
2023/03/05 09:25:21;;;;;;;2.80;2.30;;;7.80;97.00;;;;;;5080517;28;20035;-73
2023/03/05 09:27:47;;;;;;;3.10;2.15;;;7.80;97.00;;;;;;5096621;28;20106;-77
2023/03/05 09:30:14;;;;;;;3.30;2.58;;;7.70;96.60;;;;;;5084340;28;20052;-84
2023/03/05 09:32:40;;;;;;;2.58;2.13;;;7.70;97.40;;;;;;5054398;28;20116;-85
2023/03/05 09:35:06;;;;;;;2.85;2.50;;;7.80;96.90;;;;;;5055182;28;20095;-82
2023/03/05 09:37:32;;;;;;;3.60;2.30;;;7.80;96.10;;;;;;5073697;28;20094;-81
2023/03/05 09:39:58;;;;;;;2.35;1.80;;;7.80;95.70;;;;;;5076474;28;20488;-80
2023/03/05 09:42:52;;;;;;;3.35;2.20;;;7.70;95.00;;;;;;5077140;28;20094;-80
2023/03/05 09:45:27;;;;;;;2.83;1.90;;;7.70;97.40;;;;;;5059029;28;20027;-84
2023/03/05 09:48:14;;;;;;;2.95;2.17;;;7.80;96.80;;;;;;5062495;28;20017;-87
2023/03/05 09:50:49;;;;;;;2.80;1.95;;;7.80;97.70;;;;;;5054818;28;20401;-87
2023/03/05 09:53:14;;;;;;;3.83;1.90;;;7.80;96.60;;;;;;5058380;28;20020;-87
2023/03/05 09:55:49;;;;;;;2.90;2.05;;;7.90;95.60;;;;;;5050611;28;20044;-81
2023/03/05 09:58:30;;;;;;;3.15;2.10;;;7.90;96.50;;;;;;5057403;28;20029;-87
2023/03/05 10:01:00;;;;;;;2.40;1.80;;;7.80;96.30;;;;;;5077147;28;20516;-88
2023/03/05 10:03:56;;;;;;;3.60;1.98;;;7.90;95.70;;;;;;5088391;28;20028;-87
2023/03/05 10:06:43;;;;;;;2.08;1.77;;;7.90;96.60;;;;;;5074784;28;20055;-85
2023/03/05 10:09:08;;;;;;;2.97;1.98;;;7.90;96.70;;;;;;5072787;28;20056;-88
2023/03/05 10:11:42;;;;;;;2.63;1.98;;;8.00;94.80;;;;;;5054805;28;20492;-81
2023/03/05 10:14:30;;;;;;;2.50;2.05;;;8.00;95.50;;;;;;5057753;28;20028;-83
2023/03/05 10:17:20;;;;;;;2.65;1.83;;;8.00;95.70;;;;;;5076876;28;20033;-89
2023/03/05 10:20:17;;;;;;;2.45;2.00;;;8.00;95.50;;;;;;5067096;28;20032;-82
2023/03/05 10:22:49;;;;;;;2.88;2.20;;;8.00;96.50;;;;;;5058389;28;20086;-87
2023/03/05 10:25:42;;;;;;;3.05;2.30;;;8.10;95.80;;;;;;5096747;28;20095;-88
2023/03/05 10:28:18;;;;;;;2.80;2.00;;;8.10;95.80;;;;;;5066288;28;20052;-88
2023/03/05 10:31:03;;;;;;;2.60;1.80;;;8.10;95.10;;;;;;5097309;28;20050;-79
2023/03/05 10:34:01;;;;;;;2.80;1.85;;;8.10;95.60;;;;;;5072896;28;20031;-82
2023/03/05 10:36:55;;;;;;;2.75;1.77;;;8.20;96.60;;;;;;5072118;28;20055;-81
2023/03/05 10:39:47;;;;;;;2.95;2.00;;;8.20;94.60;;;;;;5064082;28;20040;-71
2023/03/05 10:42:24;;;;;;;2.40;1.80;;;8.20;96.00;;;;;;5069374;28;20075;-74
2023/03/05 10:44:55;;;;;;;2.03;1.83;;;8.30;94.00;;;;;;5079369;28;20095;-74
2023/03/05 10:47:41;;;;;;;2.67;1.90;;;8.20;92.40;;;;;;5077808;28;20105;-74
2023/03/05 10:50:23;;;;;;;2.72;2.20;;;8.20;93.10;;;;;;5077834;28;20025;-74
2023/03/05 10:53:00;;;;;;;2.78;2.03;;;8.30;95.20;;;;;;5067361;28;20086;-81
2023/03/05 10:55:25;;;;;;;2.22;1.67;;;8.30;93.90;;;;;;5080343;28;20025;-81
2023/03/05 10:57:51;;;;;;;2.58;1.90;;;8.40;92.20;;;;;;5049741;28;20373;-80
2023/03/05 11:00:26;;;;;;;2.63;2.00;;;8.30;91.30;;;;;;5080291;28;20050;-80
2023/03/05 11:02:58;;;;;;;2.63;1.98;;;8.20;90.90;;;;;;5062242;28;20115;-78
2023/03/05 11:05:49;;;;;;;2.53;1.98;;;8.20;90.10;;;;;;5080271;28;20017;-78
2023/03/05 11:08:25;;;;;;;2.03;1.83;;;8.10;92.70;;;;;;5072759;28;20396;-80
2023/03/05 11:11:08;;;;;;;2.05;1.85;;;8.20;92.40;;;;;;5077745;28;20085;-79
2023/03/05 11:13:57;;;;;;;2.30;1.98;;;8.20;91.90;;;;;;5054121;28;20047;-88
2023/03/05 11:16:29;;;;;;;2.47;2.15;;;8.10;91.40;;;;;;5080337;28;20032;-87
2023/03/05 11:19:28;;;;;;;1.65;1.55;;;8.20;90.90;;;;;;5065107;28;20446;-84
2023/03/05 11:22:15;;;;;;;4.43;1.90;;;8.10;92.10;;;;;;5077525;28;20097;-82
2023/03/05 11:24:42;;;;;;;2.85;2.00;;;8.20;91.50;;;;;;5067970;28;20449;-83
2023/03/05 11:27:24;;;;;;;2.38;2.13;;;8.20;90.50;;;;;;5080242;28;20111;-82
2023/03/05 11:29:50;;;;;;;5.45;2.30;;;8.20;91.90;;;;;;5082399;28;20033;-82
2023/03/05 11:32:20;;;;;;;2.40;1.92;;;8.20;90.90;;;;;;5086495;28;20029;-81
2023/03/05 11:34:45;;;;;;;2.28;1.80;;;8.30;92.00;;;;;;5077629;28;20063;-75
2023/03/05 11:37:31;;;;;;;2.05;1.85;;;8.40;91.30;;;;;;5098508;28;20035;-78
2023/03/05 11:40:09;;;;;;;5.07;2.03;;;8.40;91.60;;;;;;5074412;28;20389;-78
2023/03/05 11:42:39;;;;;;;2.78;2.17;;;8.40;91.30;;;;;;5079496;28;20060;-79
2023/03/05 11:45:05;;;;;;;2.58;2.00;;;8.40;91.10;;;;;;5084147;28;20012;-80
2023/03/05 11:47:31;;;;;;;2.17;1.80;;;8.40;91.10;;;;;;5080106;28;20074;-78
2023/03/05 11:50:14;;;;;;;2.83;2.13;;;8.40;90.00;;;;;;5078802;28;20480;-77
2023/03/05 11:52:50;;;;;;;2.45;1.83;;;8.50;91.70;;;;;;5077094;28;20060;-76
2023/03/05 11:55:30;;;;;;;2.17;1.92;;;8.50;91.00;;;;;;5079428;28;20028;-76
2023/03/05 11:58:30;;;;;;;2.03;1.83;;;8.50;90.90;;;;;;5078400;28;20028;-72
2023/03/05 12:00:56;;;;;;;2.13;1.75;;;8.40;91.50;;;;;;5082843;28;20025;-73
2023/03/05 12:03:33;;;;;;;2.08;1.58;;;8.40;88.40;;;;;;5080548;28;20021;-73
2023/03/05 12:06:21;;;;;;;3.05;1.83;;;8.40;90.30;;;;;;5057911;28;20028;-73
2023/03/05 12:08:53;;;;;;;2.15;1.80;;;8.40;92.00;;;;;;5076553;28;20208;-74
2023/03/05 12:11:31;;;;;;;2.13;1.75;;;8.40;88.40;;;;;;5079006;28;20112;-73
2023/03/05 12:14:16;;;;;;;3.13;2.13;;;8.40;90.50;;;;;;5078873;28;20099;-73
2023/03/05 12:16:54;;;;;;;2.03;1.65;;;8.40;91.00;;;;;;5092398;28;20392;-72
2023/03/05 12:19:31;;;;;;;2.17;1.63;;;8.40;91.30;;;;;;5099171;28;20020;-72
2023/03/05 12:21:58;;;;;;;2.97;1.90;;;8.50;90.60;;;;;;5098801;28;20412;-74
2023/03/05 12:24:23;;;;;;;2.45;1.80;;;8.40;88.80;;;;;;5098976;28;20104;-74
2023/03/05 12:26:52;;;;;;;2.55;2.10;;;8.50;89.50;;;;;;5098634;28;20047;-71
2023/03/05 12:29:39;;;;;;;2.55;1.70;;;8.50;87.30;;;;;;5098898;28;20020;-76
2023/03/05 12:32:27;;;;;;;2.00;1.45;;;8.40;89.20;;;;;;5080502;28;20052;-75
2023/03/05 12:35:05;;;;;;;2.47;1.50;;;8.40;90.60;;;;;;5057118;28;20016;-73
2023/03/05 12:37:30;;;;;;;2.30;1.58;;;8.40;90.30;;;;;;5076012;28;20035;-72
2023/03/05 12:39:59;;;;;;;1.92;1.55;;;8.60;89.00;;;;;;5078743;28;20068;-68
2023/03/05 12:42:28;;;;;;;2.38;1.80;;;8.60;89.40;;;;;;5072561;28;20024;-83
2023/03/05 12:45:13;;;;;;;1.75;1.60;;;8.60;87.20;;;;;;5061519;28;20024;-80
2023/03/05 12:47:42;;;;;;;1.63;1.23;;;8.60;90.10;;;;;;5065229;28;20477;-84
2023/03/05 12:50:26;;;;;;;2.63;1.50;;;8.70;88.90;;;;;;5060792;28;20032;-78
2023/03/05 12:53:03;;;;;;;1.75;1.40;;;8.70;89.60;;;;;;5095373;28;20480;-83
2023/03/05 12:55:56;;;;;;;2.40;1.40;;;8.70;87.00;;;;;;5078099;28;20081;-79
2023/03/05 12:58:51;;;;;;;2.67;1.52;;;8.70;88.30;;;;;;5073323;28;20024;-83
2023/03/05 13:01:45;;;;;;;1.88;1.50;;;8.70;85.70;;;;;;5077364;28;20019;-82
2023/03/05 13:04:20;;;;;;;1.85;1.38;;;8.70;88.80;;;;;;5076525;28;20028;-79
2023/03/05 13:06:46;;;;;;;2.17;1.60;;;8.70;87.60;;;;;;5070635;28;20028;-80
2023/03/05 13:09:30;;;;;;;2.28;1.33;;;8.70;83.20;;;;;;5084868;28;20028;-80
2023/03/05 13:11:57;;;;;;;2.40;1.90;;;8.60;85.60;;;;;;5062185;28;20043;-80
2023/03/05 13:14:51;;;;;;;1.90;1.63;;;8.70;84.50;;;;;;5077960;28;20025;-74
2023/03/05 13:17:37;;;;;;;2.05;1.50;;;8.60;83.80;;;;;;5043939;28;20507;-74
2023/03/05 13:20:36;;;;;;;1.90;1.70;;;8.70;87.70;;;;;;5076262;28;20032;-73
2023/03/05 13:23:20;;;;;;;2.00;1.27;;;8.60;86.70;;;;;;5069817;28;20045;-73
2023/03/05 13:26:09;;;;;;;2.03;1.58;;;8.60;85.50;;;;;;5059420;28;20465;-82
2023/03/05 13:28:38;;;;;;;2.17;1.60;;;8.60;85.10;;;;;;5051819;28;20028;-71
2023/03/05 13:31:12;;;;;;;2.10;1.40;;;8.60;82.60;;;;;;5077004;28;20036;-73
2023/03/05 13:33:37;;;;;;;2.63;1.50;;;8.60;86.00;;;;;;5091355;28;20024;-74
2023/03/05 13:36:04;;;;;;;1.95;1.38;;;8.60;79.70;;;;;;5076662;28;20107;-73
2023/03/05 13:38:38;;;;;;;2.15;1.60;;;8.60;82.10;;;;;;5077971;28;20032;-72
2023/03/05 13:41:21;;;;;;;2.75;1.65;;;8.60;84.30;;;;;;5053436;28;20043;-74
2023/03/05 13:43:54;;;;;;;2.53;1.53;;;8.60;83.80;;;;;;5059268;28;20059;-73
2023/03/05 13:46:30;;;;;;;;;;;8.60;83.70;;;;;;5077744;28;20108;-73
2023/03/05 13:49:14;;;;;;;2.08;1.35;;;8.50;85.70;;;;;;5066900;28;19908;-73
2023/03/05 13:51:42;;;;;;;2.50;1.38;;;8.50;82.60;;;;;;5063722;28;20063;-73
2023/03/05 13:54:12;;;;;;;3.83;1.90;;;8.60;84.90;;;;;;5059075;28;20031;-72
2023/03/05 13:57:00;;;;;;;2.28;1.70;;;8.60;81.90;;;;;;5074064;28;20081;-74
2023/03/05 13:59:29;;;;;;;1.70;1.33;;;8.60;84.40;;;;;;5075632;28;20492;-73
2023/03/05 14:02:14;;;;;;;2.60;1.83;;;8.60;84.10;;;;;;5053131;28;20083;-72
2023/03/05 14:04:43;;;;;;;2.70;1.77;;;8.60;82.30;;;;;;5084976;28;20024;-73
2023/03/05 14:07:41;;;;;;;2.63;1.80;;;8.70;83.20;;;;;;5084598;28;20029;-72
2023/03/05 14:10:42;;;;;;;2.50;1.80;;;8.70;85.20;;;;;;5032729;28;20036;-72
2023/03/05 14:13:20;;;;;;;2.30;1.80;;;8.70;85.70;;;;;;5027536;28;20029;-69
2023/03/05 14:16:06;;;;;;;2.35;1.58;;;8.70;82.50;;;;;;5071836;28;20048;-70
2023/03/05 14:18:32;;;;;;;2.00;1.80;;;8.60;84.70;;;;;;5075265;28;20032;-71
2023/03/05 14:21:09;;;;;;;2.58;1.90;;;8.70;82.70;;;;;;5076565;28;20077;-69
2023/03/05 14:23:41;;;;;;;2.70;2.08;;;8.70;84.20;;;;;;5056737;28;20041;-73
2023/03/05 14:26:16;;;;;;;2.60;1.80;;;8.70;84.20;;;;;;5073506;28;20052;-71
2023/03/05 14:28:41;;;;;;;2.58;1.98;;;8.80;82.90;;;;;;5062710;28;20561;-71
2023/03/05 14:31:15;;;;;;;3.83;2.22;;;8.80;81.70;;;;;;5095884;28;20091;-75
2023/03/05 14:33:41;;;;;;;2.85;2.28;;;8.80;84.30;;;;;;5064106;28;20036;-71
2023/03/05 14:36:08;;;;;;;3.45;2.08;;;8.90;82.60;;;;;;5076579;28;20549;-71
2023/03/05 14:38:33;;;;;;;2.47;1.80;;;8.90;82.30;;;;;;5075154;28;20400;-71
2023/03/05 14:41:30;;;;;;;2.50;2.25;;;9.00;82.10;;;;;;5076498;28;20024;-72
2023/03/05 14:43:56;;;;;;;2.55;1.92;;;9.00;83.80;;;;;;5087173;28;20059;-71
2023/03/05 14:46:22;;;;;;;3.03;2.10;;;9.00;81.00;;;;;;5094363;28;20054;-72
2023/03/05 14:48:47;;;;;;;3.58;2.08;;;9.00;82.00;;;;;;5074961;28;20064;-72
2023/03/05 14:51:13;;;;;;;3.60;2.05;;;9.00;81.10;;;;;;5076215;28;20020;-73